Terminal Aerodrome Forecast
Issued by NWS

Home | Current Version | Previous Version | Text Only | Print | Product List | Glossary On
Versions: 1 2 3 4 5 6 7 8 9 10 11 12 13 14 15 16 17 18 19 20 21
000
FTUS42 KMLB 061738
TAFSUA
TAF
KSUA 061738Z 0618/0718 01008KT P6SM VCSH BKN015
     FM070000 36006KT P6SM SCT030 SCT250
     FM070600 VRB02KT P6SM SCT250
     FM071400 32006KT P6SM FEW020 SCT250=

USA.gov is the U.S. government's official web portal to all federal, state and local government web resources and services.